createdAt,value
2018-10-16T00:00:05.446Z,0.00
2018-10-16T00:01:05.148Z,0.00
2018-10-16T00:02:05.627Z,0.00
2018-10-16T00:03:05.682Z,0.00
2018-10-16T00:04:05.617Z,0.00
2018-10-16T00:05:05.623Z,0.00
2018-10-16T00:06:05.627Z,0.00
2018-10-16T00:07:05.607Z,0.00
2018-10-16T00:08:05.145Z,0.00
2018-10-16T00:09:05.605Z,0.00
2018-10-16T00:10:05.150Z,0.00
2018-10-16T00:11:04.833Z,0.00
2018-10-16T00:12:05.704Z,0.00
2018-10-16T00:13:05.634Z,0.00
2018-10-16T00:14:07.203Z,0.00
2018-10-16T00:15:07.132Z,0.00
2018-10-16T00:16:05.097Z,0.00
2018-10-16T00:17:05.108Z,0.00
2018-10-16T00:18:04.799Z,0.00
2018-10-16T00:19:05.099Z,0.00
2018-10-16T00:20:05.104Z,0.00
2018-10-16T00:21:04.761Z,0.00
2018-10-16T00:22:04.717Z,0.00
2018-10-16T00:23:04.713Z,0.00
2018-10-16T00:24:05.366Z,0.00
2018-10-16T00:25:07.209Z,0.00
2018-10-16T00:26:07.130Z,0.00
2018-10-16T00:27:06.889Z,0.00
2018-10-16T00:28:05.217Z,0.00
2018-10-16T00:29:05.125Z,0.00
2018-10-16T00:30:07.112Z,0.00
2018-10-16T00:31:04.858Z,0.00
2018-10-16T00:32:05.122Z,0.00
2018-10-16T00:33:05.374Z,0.00
2018-10-16T00:34:05.113Z,0.00
2018-10-16T00:35:05.115Z,0.00
2018-10-16T00:36:05.102Z,0.00
2018-10-16T00:37:05.111Z,0.00
2018-10-16T00:38:05.112Z,0.00
2018-10-16T00:39:05.163Z,0.00
2018-10-16T00:40:05.112Z,0.00
2018-10-16T00:41:05.098Z,0.00
2018-10-16T00:42:05.117Z,0.00
2018-10-16T00:43:05.113Z,0.00
2018-10-16T00:44:05.119Z,0.00
2018-10-16T00:45:05.121Z,0.00
2018-10-16T00:46:05.122Z,0.00
2018-10-16T00:47:05.131Z,0.00
2018-10-16T00:48:05.112Z,0.00
2018-10-16T00:49:05.117Z,0.00
2018-10-16T00:50:05.129Z,0.00
2018-10-16T00:51:05.132Z,0.00
2018-10-16T00:52:05.049Z,0.00
2018-10-16T00:53:05.614Z,0.00
2018-10-16T00:54:07.139Z,0.00
2018-10-16T00:55:05.726Z,0.00
2018-10-16T00:56:04.798Z,0.00
2018-10-16T00:57:05.210Z,0.00
2018-10-16T00:58:05.090Z,0.00
2018-10-16T00:59:05.140Z,0.00
2018-10-16T01:00:05.121Z,0.00
2018-10-16T01:01:05.447Z,0.00
2018-10-16T01:02:06.879Z,0.00
2018-10-16T01:03:05.627Z,0.00
2018-10-16T01:04:05.640Z,0.00
2018-10-16T01:05:05.128Z,0.00
2018-10-16T01:06:05.043Z,0.00
2018-10-16T01:07:05.125Z,0.00
2018-10-16T01:08:05.118Z,0.00
2018-10-16T01:09:05.121Z,0.00
2018-10-16T01:10:04.738Z,0.00
2018-10-16T01:11:05.115Z,0.00
2018-10-16T01:12:05.485Z,0.00
2018-10-16T01:13:07.132Z,0.00
2018-10-16T01:14:04.807Z,0.00
2018-10-16T01:15:05.166Z,0.00
2018-10-16T01:16:04.717Z,0.00
2018-10-16T01:17:05.005Z,0.00
2018-10-16T01:18:05.755Z,0.00
2018-10-16T01:19:04.497Z,0.00
2018-10-16T01:20:04.883Z,0.00
2018-10-16T01:21:04.716Z,0.00
2018-10-16T01:22:05.175Z,0.00
2018-10-16T01:23:04.947Z,0.00
2018-10-16T01:24:05.151Z,0.00
2018-10-16T01:25:05.125Z,0.00
2018-10-16T01:26:05.121Z,0.00
2018-10-16T01:27:05.485Z,0.00
2018-10-16T01:28:04.862Z,0.00
2018-10-16T01:29:05.149Z,0.00
2018-10-16T01:30:05.132Z,0.00
2018-10-16T01:31:05.592Z,0.00
2018-10-16T01:32:05.126Z,0.00
2018-10-16T01:33:05.130Z,0.00
2018-10-16T01:34:05.128Z,0.00
2018-10-16T01:35:05.132Z,0.00
2018-10-16T01:36:04.935Z,0.00
2018-10-16T01:37:06.713Z,0.00
2018-10-16T01:38:04.575Z,0.00
2018-10-16T01:39:04.956Z,0.00
2018-10-16T01:40:05.127Z,0.00
2018-10-16T01:41:04.937Z,0.00
2018-10-16T01:42:04.942Z,0.00
2018-10-16T01:43:04.955Z,0.00
2018-10-16T01:44:05.148Z,0.00
2018-10-16T01:45:04.951Z,0.00
2018-10-16T01:46:05.149Z,0.00
2018-10-16T01:47:04.959Z,0.00
2018-10-16T01:48:05.158Z,0.00
2018-10-16T01:49:04.958Z,0.00
2018-10-16T01:50:04.935Z,0.00
2018-10-16T01:51:05.149Z,0.00
2018-10-16T01:52:05.132Z,0.00
2018-10-16T01:53:04.923Z,0.00
2018-10-16T01:54:05.153Z,0.00
2018-10-16T01:55:05.237Z,0.00
2018-10-16T01:56:06.734Z,0.00
2018-10-16T01:57:05.131Z,0.00
2018-10-16T01:58:05.132Z,0.00
2018-10-16T01:59:05.132Z,0.00
2018-10-16T02:00:05.158Z,0.00
2018-10-16T02:01:05.130Z,0.00
2018-10-16T02:02:05.134Z,0.00
2018-10-16T02:03:05.137Z,0.00
2018-10-16T02:04:05.147Z,0.00
2018-10-16T02:05:04.977Z,0.00
2018-10-16T02:06:04.979Z,0.00
2018-10-16T02:07:05.026Z,0.00
2018-10-16T02:08:05.024Z,0.00
2018-10-16T02:09:05.042Z,0.00
2018-10-16T02:10:05.062Z,0.00
2018-10-16T02:11:05.060Z,0.00
2018-10-16T02:12:04.937Z,0.00
2018-10-16T02:13:04.976Z,0.00
2018-10-16T02:14:04.961Z,0.00
2018-10-16T02:15:04.963Z,0.00
2018-10-16T02:16:04.918Z,0.00
2018-10-16T02:17:04.960Z,0.00
2018-10-16T02:18:04.971Z,0.00
2018-10-16T02:19:04.952Z,0.00
2018-10-16T02:20:05.158Z,0.00
2018-10-16T02:21:04.627Z,0.00
2018-10-16T02:22:04.978Z,0.00
2018-10-16T02:23:04.964Z,0.00
2018-10-16T02:24:04.622Z,0.00
2018-10-16T02:25:05.003Z,0.00
2018-10-16T02:26:04.953Z,0.00
2018-10-16T02:27:04.963Z,0.00
2018-10-16T02:28:05.211Z,0.00
2018-10-16T02:29:05.171Z,0.00
2018-10-16T02:30:04.643Z,0.00
2018-10-16T02:31:04.644Z,0.00
2018-10-16T02:32:05.198Z,0.00
2018-10-16T02:33:05.156Z,0.00
2018-10-16T02:34:05.148Z,0.00
2018-10-16T02:35:05.152Z,0.00
2018-10-16T02:36:05.162Z,0.00
2018-10-16T02:37:04.832Z,0.00
2018-10-16T02:38:05.195Z,0.00
2018-10-16T02:39:05.192Z,0.00
2018-10-16T02:40:05.188Z,0.00
2018-10-16T02:41:05.184Z,0.00
2018-10-16T02:42:05.147Z,0.00
2018-10-16T02:43:05.153Z,0.00
2018-10-16T02:44:05.186Z,0.00
2018-10-16T02:45:04.939Z,0.00
2018-10-16T02:46:05.186Z,0.00
2018-10-16T02:47:05.152Z,0.00
2018-10-16T02:48:05.172Z,0.00
2018-10-16T02:49:05.152Z,0.00
2018-10-16T02:50:05.154Z,0.00
2018-10-16T02:51:05.215Z,0.00
2018-10-16T02:52:05.178Z,0.00
2018-10-16T02:53:04.984Z,0.00
2018-10-16T02:54:04.971Z,0.00
2018-10-16T02:55:05.178Z,0.00
2018-10-16T02:56:04.976Z,0.00
2018-10-16T02:57:04.955Z,0.00
2018-10-16T02:58:05.172Z,0.00
2018-10-16T02:59:05.026Z,0.00
2018-10-16T03:00:05.000Z,0.00
2018-10-16T03:01:05.152Z,0.00
2018-10-16T03:02:05.174Z,0.00
2018-10-16T03:03:05.157Z,0.00
2018-10-16T03:04:05.176Z,0.00
2018-10-16T03:05:05.510Z,0.00
2018-10-16T03:06:05.160Z,0.00
2018-10-16T03:07:05.160Z,0.00
2018-10-16T03:08:04.969Z,0.00
2018-10-16T03:09:05.021Z,0.00
2018-10-16T03:10:05.592Z,0.00
2018-10-16T03:11:05.168Z,0.00
2018-10-16T03:12:04.941Z,0.00
2018-10-16T03:13:05.159Z,0.00
2018-10-16T03:14:04.946Z,0.00
2018-10-16T03:15:05.661Z,0.00
2018-10-16T03:16:05.159Z,0.00
2018-10-16T03:17:04.932Z,0.00
2018-10-16T03:18:05.162Z,0.00
2018-10-16T03:19:04.955Z,0.00
2018-10-16T03:20:05.699Z,0.00
2018-10-16T03:21:04.942Z,0.00
2018-10-16T03:22:05.162Z,0.00
2018-10-16T03:23:05.159Z,0.00
2018-10-16T03:24:05.155Z,0.00
2018-10-16T03:25:05.160Z,0.00
2018-10-16T03:26:04.977Z,0.00
2018-10-16T03:27:05.166Z,0.00
2018-10-16T03:28:05.168Z,0.00
2018-10-16T03:29:05.157Z,0.00
2018-10-16T03:30:05.167Z,0.00
2018-10-16T03:31:05.164Z,0.00
2018-10-16T03:32:05.166Z,0.00
2018-10-16T03:33:04.960Z,0.00
2018-10-16T03:34:04.965Z,0.00
2018-10-16T03:35:05.161Z,0.00
2018-10-16T03:36:04.699Z,0.00
2018-10-16T03:37:05.203Z,0.00
2018-10-16T03:38:05.204Z,0.00
2018-10-16T03:39:05.209Z,0.00
2018-10-16T03:40:05.210Z,0.00
2018-10-16T03:41:05.202Z,0.00
2018-10-16T03:42:05.168Z,0.00
2018-10-16T03:43:05.204Z,0.00
2018-10-16T03:44:04.947Z,0.00
2018-10-16T03:45:05.209Z,0.00
2018-10-16T03:46:05.168Z,0.00
2018-10-16T03:47:04.953Z,0.00
2018-10-16T03:48:05.162Z,0.00
2018-10-16T03:49:05.178Z,0.00
2018-10-16T03:50:05.216Z,0.00
2018-10-16T03:51:05.205Z,0.00
2018-10-16T03:52:06.685Z,0.00
2018-10-16T03:53:06.675Z,0.00
2018-10-16T03:54:06.667Z,0.00
2018-10-16T03:55:06.510Z,0.00
2018-10-16T03:56:06.667Z,0.00
2018-10-16T03:57:04.702Z,0.00
2018-10-16T03:58:06.680Z,0.00
2018-10-16T03:59:06.457Z,0.00
2018-10-16T04:00:07.172Z,0.00
2018-10-16T04:01:06.724Z,0.00
2018-10-16T04:02:04.636Z,0.00
2018-10-16T04:03:06.514Z,0.00
2018-10-16T04:04:06.669Z,0.00
2018-10-16T04:05:04.635Z,0.00
2018-10-16T04:06:04.703Z,0.00
2018-10-16T04:07:04.671Z,0.00
2018-10-16T04:08:04.505Z,0.00
2018-10-16T04:09:04.678Z,0.00
2018-10-16T04:10:04.674Z,0.00
2018-10-16T04:11:04.777Z,0.00
2018-10-16T04:12:05.191Z,0.00
2018-10-16T04:13:04.547Z,0.00
2018-10-16T04:14:05.287Z,0.00
2018-10-16T04:15:04.680Z,0.00
2018-10-16T04:16:04.722Z,0.00
2018-10-16T04:17:04.673Z,0.00
2018-10-16T04:18:04.675Z,0.00
2018-10-16T04:19:04.510Z,0.00
2018-10-16T04:20:04.679Z,0.00
2018-10-16T04:21:04.304Z,0.00
2018-10-16T04:22:04.834Z,0.00
2018-10-16T04:23:04.851Z,0.00
2018-10-16T04:24:04.740Z,0.00
2018-10-16T04:25:04.739Z,0.00
2018-10-16T04:26:04.806Z,0.00
2018-10-16T04:27:04.845Z,0.00
2018-10-16T04:28:06.710Z,0.00
2018-10-16T04:29:04.834Z,0.00
2018-10-16T04:30:04.865Z,0.00
2018-10-16T04:31:04.788Z,0.00
2018-10-16T04:32:05.224Z,0.00
2018-10-16T04:33:04.939Z,0.00
2018-10-16T04:34:04.687Z,0.00
2018-10-16T04:35:05.232Z,0.00
2018-10-16T04:36:05.061Z,0.00
2018-10-16T04:37:04.888Z,0.00
2018-10-16T04:38:04.683Z,0.00
2018-10-16T04:39:05.062Z,0.00
2018-10-16T04:40:05.310Z,0.00
2018-10-16T04:41:04.683Z,0.00
2018-10-16T04:42:04.696Z,0.00
2018-10-16T04:43:06.735Z,0.00
2018-10-16T04:44:05.137Z,0.00
2018-10-16T04:45:06.368Z,0.00
2018-10-16T04:46:04.378Z,0.00
2018-10-16T04:47:04.675Z,0.00
2018-10-16T04:48:04.845Z,0.00
2018-10-16T04:49:04.983Z,0.00
2018-10-16T04:50:04.734Z,0.00
2018-10-16T04:51:04.817Z,0.00
2018-10-16T04:52:04.854Z,0.00
2018-10-16T04:53:05.226Z,0.00
2018-10-16T04:54:04.611Z,0.00
2018-10-16T04:55:04.744Z,0.00
2018-10-16T04:56:04.690Z,0.00
2018-10-16T04:57:04.725Z,0.00
2018-10-16T04:58:05.225Z,0.00
2018-10-16T04:59:05.160Z,0.00
2018-10-16T05:00:04.830Z,0.00
2018-10-16T05:01:03.135Z,0.00
2018-10-16T05:02:04.419Z,0.00
2018-10-16T05:03:05.240Z,0.00
2018-10-16T05:04:05.164Z,0.00
2018-10-16T05:05:04.264Z,0.00
2018-10-16T05:06:03.137Z,0.00
2018-10-16T05:07:03.857Z,0.00
2018-10-16T05:08:04.748Z,0.00
2018-10-16T05:09:04.694Z,0.00
2018-10-16T05:10:05.238Z,0.00
2018-10-16T05:11:03.154Z,0.00
2018-10-16T05:12:04.257Z,0.00
2018-10-16T05:13:04.230Z,0.00
2018-10-16T05:14:04.233Z,0.00
2018-10-16T05:15:03.771Z,0.00
2018-10-16T05:16:03.156Z,0.00
2018-10-16T05:17:04.796Z,0.00
2018-10-16T05:18:04.739Z,0.00
2018-10-16T05:19:04.568Z,0.00
2018-10-16T05:20:03.802Z,0.00
2018-10-16T05:21:04.264Z,0.00
2018-10-16T05:22:04.750Z,0.00
2018-10-16T05:23:04.712Z,0.00
2018-10-16T05:24:04.244Z,0.00
2018-10-16T05:25:04.250Z,0.00
2018-10-16T05:26:04.447Z,0.00
2018-10-16T05:27:04.194Z,0.00
2018-10-16T05:28:04.315Z,0.00
2018-10-16T05:29:04.542Z,0.00
2018-10-16T05:30:04.213Z,0.00
2018-10-16T05:31:04.863Z,4.00
2018-10-16T05:32:04.157Z,4.00
2018-10-16T05:33:03.808Z,0.00
2018-10-16T05:34:04.915Z,4.00
2018-10-16T05:35:04.402Z,4.00
2018-10-16T05:36:04.199Z,4.00
2018-10-16T05:37:03.099Z,8.00
2018-10-16T05:38:04.197Z,4.00
2018-10-16T05:39:04.590Z,8.00
2018-10-16T05:40:04.245Z,8.00
2018-10-16T05:41:03.103Z,8.00
2018-10-16T05:42:17.930Z,12.00
2018-10-16T05:43:11.044Z,16.00
2018-10-16T05:44:04.759Z,20.00
2018-10-16T05:47:37.191Z,28.00
2018-10-16T05:49:44.249Z,36.00
2018-10-16T05:50:44.351Z,40.00
2018-10-16T05:52:37.859Z,52.00
2018-10-16T05:53:37.731Z,56.00
2018-10-16T05:55:32.408Z,64.00
2018-10-16T05:56:32.448Z,72.00
2018-10-16T05:58:26.670Z,88.00
2018-10-16T05:59:35.589Z,96.00
2018-10-16T06:01:21.575Z,112.00
2018-10-16T06:02:21.306Z,120.00
2018-10-16T06:04:16.830Z,136.00
2018-10-16T06:05:17.645Z,148.00
2018-10-16T06:07:11.502Z,164.00
2018-10-16T06:08:13.565Z,172.00
2018-10-16T06:10:06.672Z,188.00
2018-10-16T06:11:07.405Z,204.00
2018-10-16T06:13:01.547Z,224.00
2018-10-16T06:14:01.516Z,236.00
2018-10-16T06:15:56.480Z,244.00
2018-10-16T06:17:55.069Z,256.00
2018-10-16T06:18:58.316Z,272.00
2018-10-16T06:19:56.694Z,288.00
2018-10-16T06:20:55.170Z,304.00
2018-10-16T06:21:56.966Z,316.00
2018-10-16T06:22:56.592Z,324.00
2018-10-16T06:23:56.692Z,336.00
2018-10-16T06:24:56.525Z,348.00
2018-10-16T06:25:56.357Z,356.00
2018-10-16T06:26:56.141Z,364.00
2018-10-16T06:27:56.737Z,368.00
2018-10-16T06:28:55.045Z,368.00
2018-10-16T06:29:56.173Z,372.00
2018-10-16T06:30:56.989Z,380.00
2018-10-16T06:31:57.105Z,388.00
2018-10-16T06:32:56.241Z,396.00
2018-10-16T06:33:55.048Z,404.00
2018-10-16T06:34:55.646Z,412.00
2018-10-16T06:35:57.194Z,424.00
2018-10-16T06:36:56.495Z,432.00
2018-10-16T06:37:56.676Z,440.00
2018-10-16T06:38:55.643Z,452.00
2018-10-16T06:39:56.405Z,460.00
2018-10-16T06:40:56.470Z,464.00
2018-10-16T06:41:56.457Z,468.00
2018-10-16T06:42:55.609Z,472.00
2018-10-16T06:43:58.686Z,476.00
2018-10-16T06:44:56.255Z,484.00
2018-10-16T06:45:56.517Z,492.00
2018-10-16T06:46:55.979Z,496.00
2018-10-16T06:47:56.777Z,500.00
2018-10-16T06:48:56.252Z,504.00
2018-10-16T06:49:56.556Z,508.00
2018-10-16T06:50:56.472Z,512.00
2018-10-16T06:51:56.742Z,516.00
2018-10-16T06:52:56.746Z,520.00
2018-10-16T06:53:56.494Z,528.00
2018-10-16T06:54:56.665Z,536.00
2018-10-16T06:55:56.696Z,544.00
2018-10-16T06:56:56.743Z,552.00
2018-10-16T06:58:17.205Z,560.00
2018-10-16T06:58:58.484Z,564.00
2018-10-16T06:59:57.088Z,576.00
2018-10-16T07:00:56.007Z,588.00
2018-10-16T07:01:56.148Z,596.00
2018-10-16T07:02:56.728Z,608.00
2018-10-16T07:03:56.518Z,620.00
2018-10-16T07:04:56.147Z,632.00
2018-10-16T07:05:56.491Z,648.00
2018-10-16T07:06:57.136Z,660.00
2018-10-16T07:07:56.148Z,672.00
2018-10-16T07:08:56.146Z,684.00
2018-10-16T07:09:56.725Z,696.00
2018-10-16T07:10:56.511Z,704.00
2018-10-16T07:11:56.646Z,720.00
2018-10-16T07:12:54.836Z,736.00
2018-10-16T07:13:55.959Z,752.00
2018-10-16T07:14:56.820Z,764.00
2018-10-16T07:15:56.759Z,776.00
2018-10-16T07:16:56.865Z,792.00
2018-10-16T07:17:55.973Z,812.00
2018-10-16T07:18:56.676Z,828.00
2018-10-16T07:19:56.785Z,840.00
2018-10-16T07:20:56.607Z,860.00
2018-10-16T07:21:56.740Z,872.00
2018-10-16T07:22:56.464Z,892.00
2018-10-16T07:23:56.506Z,908.00
2018-10-16T07:24:56.655Z,928.00
2018-10-16T07:25:55.933Z,948.00
2018-10-16T07:26:58.707Z,976.00
2018-10-16T07:27:57.105Z,1012.00
2018-10-16T07:28:56.189Z,1036.00
2018-10-16T07:29:57.228Z,1044.00
2018-10-16T07:30:57.095Z,1060.00
2018-10-16T07:31:56.254Z,1084.00
2018-10-16T07:32:56.796Z,1108.00
2018-10-16T07:33:56.709Z,1104.00
2018-10-16T07:34:56.192Z,1136.00
2018-10-16T07:35:56.716Z,1188.00
2018-10-16T07:36:56.672Z,1192.00
2018-10-16T07:37:56.356Z,1180.00
2018-10-16T07:38:56.799Z,1184.00
2018-10-16T07:39:56.654Z,1184.00
2018-10-16T07:40:56.165Z,1216.00
2018-10-16T07:41:56.753Z,1224.00
2018-10-16T07:42:56.766Z,1240.00
2018-10-16T07:43:56.173Z,1256.00
2018-10-16T07:44:56.741Z,1304.00
2018-10-16T07:45:58.341Z,1296.00
2018-10-16T07:46:56.210Z,1252.00
2018-10-16T07:47:58.158Z,1264.00
2018-10-16T07:48:58.606Z,1348.00
2018-10-16T07:49:56.158Z,1412.00
2018-10-16T07:50:56.620Z,1456.00
2018-10-16T07:51:58.564Z,1480.00
2018-10-16T07:52:56.220Z,1492.00
2018-10-16T07:53:56.992Z,1500.00
2018-10-16T07:54:58.660Z,1516.00
2018-10-16T07:56:02.060Z,1536.00
2018-10-16T07:56:56.777Z,1548.00
2018-10-16T07:57:56.823Z,1556.00
2018-10-16T07:58:56.103Z,1568.00
2018-10-16T07:59:55.881Z,1588.00
2018-10-16T08:00:56.697Z,1600.00
2018-10-16T08:01:56.175Z,1600.00
2018-10-16T08:02:56.641Z,1604.00
2018-10-16T08:03:56.727Z,1636.00
2018-10-16T08:04:56.164Z,1652.00
2018-10-16T08:05:56.164Z,1664.00
2018-10-16T08:06:56.626Z,1680.00
2018-10-16T08:07:56.268Z,1692.00
2018-10-16T08:08:56.632Z,1704.00
2018-10-16T08:09:58.545Z,1708.00
2018-10-16T08:10:56.252Z,1700.00
2018-10-16T08:11:56.675Z,1724.00
2018-10-16T08:12:56.238Z,1760.00
2018-10-16T08:13:56.225Z,1780.00
2018-10-16T08:14:58.560Z,1796.00
2018-10-16T08:15:56.167Z,1804.00
2018-10-16T08:16:56.239Z,1812.00
2018-10-16T08:17:56.247Z,1824.00
2018-10-16T08:18:58.321Z,1832.00
2018-10-16T08:19:56.209Z,1844.00
2018-10-16T08:20:56.169Z,1856.00
2018-10-16T08:21:56.527Z,1868.00
2018-10-16T08:22:56.283Z,1880.00
2018-10-16T08:23:56.246Z,1892.00
2018-10-16T08:24:56.188Z,1908.00
2018-10-16T08:25:56.174Z,1920.00
2018-10-16T08:26:56.344Z,1932.00
2018-10-16T08:27:56.207Z,1944.00
2018-10-16T08:28:56.125Z,1956.00
2018-10-16T08:29:56.711Z,1972.00
2018-10-16T08:30:56.699Z,1980.00
2018-10-16T08:31:58.277Z,1988.00
2018-10-16T08:32:56.642Z,2004.00
2018-10-16T08:33:56.731Z,2020.00
2018-10-16T08:34:56.364Z,2032.00
2018-10-16T08:35:56.696Z,2052.00
2018-10-16T08:36:56.841Z,2064.00
2018-10-16T08:37:56.280Z,2076.00
2018-10-16T08:38:56.667Z,2096.00
2018-10-16T08:39:56.522Z,2112.00
2018-10-16T08:40:56.676Z,2128.00
2018-10-16T08:41:54.729Z,2148.00
2018-10-16T08:42:57.859Z,2160.00
2018-10-16T08:43:56.418Z,2168.00
2018-10-16T08:44:56.480Z,2184.00
2018-10-16T08:45:56.250Z,2200.00
2018-10-16T08:46:57.713Z,2212.00
2018-10-16T08:47:56.172Z,2228.00
2018-10-16T08:48:56.671Z,2244.00
2018-10-16T08:49:56.173Z,2260.00
2018-10-16T08:50:56.172Z,2268.00
2018-10-16T08:51:56.686Z,2292.00
2018-10-16T08:52:56.229Z,2308.00
2018-10-16T08:53:58.746Z,2324.00
2018-10-16T08:54:56.259Z,2336.00
2018-10-16T08:55:56.177Z,2356.00
2018-10-16T08:56:56.261Z,2372.00
2018-10-16T08:57:56.709Z,2388.00
2018-10-16T08:58:57.745Z,2408.00
2018-10-16T08:59:56.248Z,2424.00
2018-10-16T09:00:56.271Z,2440.00
2018-10-16T09:01:56.178Z,2460.00
2018-10-16T09:02:56.540Z,2476.00
2018-10-16T09:03:56.124Z,2492.00
2018-10-16T09:04:57.771Z,2512.00
2018-10-16T09:05:56.249Z,2532.00
2018-10-16T09:06:56.229Z,2544.00
2018-10-16T09:07:56.562Z,2564.00
2018-10-16T09:08:56.253Z,2584.00
2018-10-16T09:09:56.238Z,2608.00
2018-10-16T09:10:56.247Z,2624.00
2018-10-16T09:11:55.689Z,2640.00
2018-10-16T09:12:56.252Z,2660.00
2018-10-16T09:13:56.749Z,2676.00
2018-10-16T09:14:56.630Z,2692.00
2018-10-16T09:15:55.756Z,2708.00
2018-10-16T09:16:56.742Z,2728.00
2018-10-16T09:17:56.525Z,2744.00
2018-10-16T09:18:56.647Z,2764.00
2018-10-16T09:19:56.185Z,2788.00
2018-10-16T09:20:56.014Z,2812.00
2018-10-16T09:21:55.789Z,2828.00
2018-10-16T09:22:56.186Z,2852.00
2018-10-16T09:23:56.740Z,2872.00
2018-10-16T09:24:56.632Z,2892.00
2018-10-16T09:25:56.863Z,2916.00
2018-10-16T09:26:56.189Z,2936.00
2018-10-16T09:27:56.187Z,2960.00
2018-10-16T09:28:56.446Z,2984.00
2018-10-16T09:29:56.195Z,3008.00
2018-10-16T09:30:56.327Z,3036.00
2018-10-16T09:31:56.189Z,3064.00
2018-10-16T09:32:56.693Z,3096.00
2018-10-16T09:33:56.379Z,3124.00
2018-10-16T09:34:56.311Z,3152.00
2018-10-16T09:35:56.257Z,3180.00
2018-10-16T09:36:56.645Z,3208.00
2018-10-16T09:37:56.117Z,3240.00
2018-10-16T09:38:58.082Z,3264.00
2018-10-16T09:39:56.342Z,3296.00
2018-10-16T09:40:56.202Z,3328.00
2018-10-16T09:41:56.595Z,3360.00
2018-10-16T09:42:55.953Z,3396.00
2018-10-16T09:43:56.245Z,3432.00
2018-10-16T09:44:56.301Z,3472.00
2018-10-16T09:45:56.197Z,3516.00
2018-10-16T09:46:56.294Z,3560.00
2018-10-16T09:47:56.546Z,3600.00
2018-10-16T09:48:56.208Z,3644.00
2018-10-16T09:49:56.318Z,3692.00
2018-10-16T09:50:56.319Z,3744.00
2018-10-16T09:51:58.130Z,3788.00
2018-10-16T09:52:56.775Z,3840.00
2018-10-16T09:53:55.811Z,3896.00
2018-10-16T09:56:28.866Z,4048.00
2018-10-16T09:57:29.549Z,4108.00
2018-10-16T10:00:38.330Z,4328.00
2018-10-16T10:02:32.083Z,4472.00
2018-10-16T10:03:31.895Z,4988.00
2018-10-16T10:05:26.084Z,9408.00
2018-10-16T10:06:26.714Z,12436.00
2018-10-16T10:08:48.733Z,14640.00
2018-10-16T10:09:49.042Z,14728.00
2018-10-16T10:10:48.724Z,14804.00
2018-10-16T10:11:48.716Z,15048.00
2018-10-16T10:12:49.237Z,15404.00
2018-10-16T10:13:48.995Z,15776.00
2018-10-16T10:14:49.105Z,16224.00
2018-10-16T10:15:50.746Z,16800.00
2018-10-16T10:16:48.661Z,17440.00
2018-10-16T10:17:50.376Z,18144.00
2018-10-16T10:18:48.902Z,18400.00
2018-10-16T10:19:49.031Z,18112.00
2018-10-16T10:20:49.327Z,17920.00
2018-10-16T10:21:49.363Z,17888.00
2018-10-16T10:22:48.664Z,17696.00
2018-10-16T10:24:15.669Z,17664.00
2018-10-16T10:24:49.715Z,17888.00
2018-10-16T10:26:01.252Z,18304.00
2018-10-16T10:27:43.663Z,19200.00
2018-10-16T10:28:44.031Z,20608.00
2018-10-16T10:30:37.786Z,20928.00
2018-10-16T10:31:38.332Z,20992.00
2018-10-16T10:32:37.892Z,20448.00
2018-10-16T10:33:38.676Z,20448.00
2018-10-16T10:34:38.386Z,20416.00
2018-10-16T10:35:38.811Z,20736.00
2018-10-16T10:36:37.785Z,21024.00
2018-10-16T10:37:38.165Z,21408.00
2018-10-16T10:38:38.289Z,21856.00
2018-10-16T10:39:38.643Z,22016.00
2018-10-16T10:40:37.870Z,22336.00
2018-10-16T10:41:38.690Z,21664.00
2018-10-16T10:42:38.797Z,21056.00
2018-10-16T10:43:38.445Z,20672.00
2018-10-16T10:44:38.389Z,20352.00
2018-10-16T10:47:13.619Z,20640.00
2018-10-16T10:48:14.041Z,20224.00
2018-10-16T10:50:08.801Z,21216.00
2018-10-16T10:51:09.126Z,21248.00
2018-10-16T10:53:03.114Z,21600.00
2018-10-16T10:54:02.959Z,20960.00
2018-10-16T10:55:03.190Z,20704.00
2018-10-16T10:56:03.114Z,20544.00
2018-10-16T10:57:03.283Z,20640.00
2018-10-16T10:58:02.596Z,20992.00
2018-10-16T10:59:02.601Z,21120.00
2018-10-16T11:00:02.530Z,21024.00
2018-10-16T11:01:02.558Z,21088.00
2018-10-16T11:02:02.933Z,21376.00
2018-10-16T11:03:02.674Z,21280.00
2018-10-16T11:04:02.600Z,21408.00
2018-10-16T11:05:03.568Z,21440.00
2018-10-16T11:06:03.415Z,21600.00
2018-10-16T11:07:03.685Z,21952.00
2018-10-16T11:08:02.581Z,22112.00
2018-10-16T11:09:03.149Z,22336.00
2018-10-16T11:10:05.416Z,22368.00
2018-10-16T11:11:23.564Z,22656.00
2018-10-16T11:12:03.620Z,22592.00
2018-10-16T11:13:04.655Z,22272.00
2018-10-16T11:14:17.370Z,22400.00
2018-10-16T11:15:02.888Z,22880.00
2018-10-16T11:16:03.903Z,23616.00
2018-10-16T11:17:03.068Z,24224.00
2018-10-16T11:18:02.570Z,26048.00
2018-10-16T11:22:43.055Z,65312.00
2018-10-16T11:22:57.628Z,89632.00
2018-10-16T11:24:51.879Z,69504.00
2018-10-16T11:27:43.230Z,64704.00
2018-10-16T11:32:03.448Z,61216.00
2018-10-16T11:34:08.729Z,58944.00
2018-10-16T11:35:08.883Z,56992.00
2018-10-16T11:37:21.207Z,57120.00
2018-10-16T11:38:03.580Z,57792.00
2018-10-16T11:43:16.259Z,60320.00
2018-10-16T11:44:16.305Z,62592.00
2018-10-16T11:46:10.779Z,58848.00
2018-10-16T11:47:13.809Z,64032.00
2018-10-16T11:49:05.603Z,67040.00
2018-10-16T11:50:08.116Z,65280.00
2018-10-16T11:51:59.327Z,59104.00
2018-10-16T11:52:59.953Z,61152.00
2018-10-16T11:54:54.103Z,63392.00
2018-10-16T11:55:55.736Z,61952.00
2018-10-16T11:58:00.158Z,63808.00
2018-10-16T11:58:59.783Z,63520.00
2018-10-16T12:00:54.476Z,62784.00
2018-10-16T12:01:54.613Z,62400.00
2018-10-16T12:03:48.680Z,59680.00
2018-10-16T12:04:49.137Z,59168.00
2018-10-16T12:06:43.935Z,60768.00
2018-10-16T12:07:44.037Z,60768.00
2018-10-16T12:09:38.687Z,59328.00
2018-10-16T12:10:38.852Z,59296.00
2018-10-16T12:12:33.639Z,61632.00
2018-10-16T12:13:33.074Z,60928.00
2018-10-16T12:15:26.988Z,58784.00
2018-10-16T12:16:27.962Z,59936.00
2018-10-16T12:17:47.975Z,59744.00
2018-10-16T12:18:42.419Z,60096.00
2018-10-16T12:19:28.100Z,59616.00
2018-10-16T12:20:48.516Z,60960.00
2018-10-16T12:21:28.402Z,59808.00
2018-10-16T12:22:27.416Z,53888.00
2018-10-16T12:23:27.855Z,54144.00
2018-10-16T12:24:27.420Z,55424.00
2018-10-16T12:25:27.410Z,56416.00
2018-10-16T12:26:27.327Z,57056.00
2018-10-16T12:27:27.435Z,56608.00
2018-10-16T12:28:47.997Z,57088.00
2018-10-16T12:29:27.408Z,56736.00
2018-10-16T12:30:27.403Z,55168.00
2018-10-16T12:31:29.407Z,57504.00
2018-10-16T12:32:27.407Z,59424.00
2018-10-16T12:33:27.114Z,58080.00
2018-10-16T12:34:28.249Z,55456.00
2018-10-16T12:35:27.434Z,54400.00
2018-10-16T12:36:27.934Z,56800.00
2018-10-16T12:37:27.976Z,58624.00
2018-10-16T12:38:27.523Z,56544.00
2018-10-16T12:39:27.786Z,55392.00
2018-10-16T12:40:28.198Z,54976.00
2018-10-16T12:41:27.921Z,54656.00
2018-10-16T12:42:27.885Z,53792.00
2018-10-16T12:43:28.543Z,54720.00
2018-10-16T12:44:27.240Z,57280.00
2018-10-16T12:45:27.419Z,55872.00
2018-10-16T12:46:27.915Z,55104.00
2018-10-16T12:47:27.751Z,57216.00
2018-10-16T12:48:27.882Z,56736.00
2018-10-16T12:49:27.917Z,56704.00
2018-10-16T12:50:27.971Z,56352.00
2018-10-16T12:51:27.981Z,55520.00
2018-10-16T12:52:27.925Z,56160.00
2018-10-16T12:53:27.991Z,56448.00
2018-10-16T12:54:27.886Z,58176.00
2018-10-16T12:55:27.926Z,58016.00
2018-10-16T12:56:27.935Z,56224.00
2018-10-16T12:57:28.495Z,55136.00
2018-10-16T12:58:27.988Z,54560.00
2018-10-16T12:59:29.896Z,53984.00
2018-10-16T13:00:27.965Z,56864.00
2018-10-16T13:01:30.221Z,54976.00
2018-10-16T13:02:27.985Z,51936.00
2018-10-16T13:03:28.017Z,51360.00
2018-10-16T13:04:30.159Z,50336.00
2018-10-16T13:05:27.815Z,50816.00
2018-10-16T13:06:29.009Z,50016.00
2018-10-16T13:07:28.959Z,50720.00
2018-10-16T13:08:27.926Z,51616.00
2018-10-16T13:09:27.929Z,53536.00
2018-10-16T13:12:23.865Z,52608.00
2018-10-16T13:13:22.973Z,53024.00
2018-10-16T13:15:46.238Z,54432.00
2018-10-16T13:16:46.260Z,53280.00
2018-10-16T13:18:41.850Z,52448.00
2018-10-16T13:19:41.277Z,51136.00
2018-10-16T13:21:36.445Z,47392.00
2018-10-16T13:22:36.396Z,46496.00
2018-10-16T13:24:30.303Z,49056.00
2018-10-16T13:25:30.491Z,49184.00
2018-10-16T13:27:24.833Z,48704.00
2018-10-16T13:28:25.831Z,50208.00
2018-10-16T13:29:25.406Z,49824.00
2018-10-16T13:30:24.855Z,48640.00
2018-10-16T13:31:25.452Z,48704.00